createdAt,value
2023-03-17T00:01:54.084Z,2.92
2023-03-17T00:04:24.177Z,2.27
2023-03-17T00:06:52.795Z,2.15
2023-03-17T00:09:20.782Z,1.98
2023-03-17T00:11:48.886Z,2.15
2023-03-17T00:14:16.722Z,2.10
2023-03-17T00:16:48.545Z,2.43
2023-03-17T00:19:17.777Z,2.22
2023-03-17T00:21:47.018Z,2.38
2023-03-17T00:24:15.349Z,2.08
2023-03-17T00:26:43.210Z,2.30
2023-03-17T00:29:10.622Z,2.20
2023-03-17T00:31:39.431Z,2.00
2023-03-17T00:34:07.798Z,1.80
2023-03-17T00:36:35.823Z,1.90
2023-03-17T00:39:03.714Z,2.58
2023-03-17T00:41:31.034Z,2.00
2023-03-17T00:43:59.683Z,2.40
2023-03-17T00:46:29.005Z,2.33
2023-03-17T00:48:57.903Z,2.22
2023-03-17T00:51:25.115Z,1.90
2023-03-17T00:53:52.696Z,1.93
2023-03-17T00:56:21.409Z,2.33
2023-03-17T00:58:49.244Z,2.20
2023-03-17T01:01:18.300Z,1.90
2023-03-17T01:03:47.545Z,2.05
2023-03-17T01:06:16.364Z,2.40
2023-03-17T01:08:45.379Z,2.00
2023-03-17T01:11:19.710Z,2.35
2023-03-17T01:13:47.951Z,2.30
2023-03-17T01:16:15.937Z,2.78
2023-03-17T01:18:43.582Z,2.70
2023-03-17T01:21:11.017Z,2.38
2023-03-17T01:23:38.262Z,2.05
2023-03-17T01:26:06.571Z,1.85
2023-03-17T01:28:34.179Z,2.22
2023-03-17T01:31:02.650Z,2.10
2023-03-17T01:33:29.897Z,1.55
2023-03-17T01:35:57.526Z,2.25
2023-03-17T01:38:25.200Z,2.05
2023-03-17T01:40:53.437Z,2.25
2023-03-17T01:43:28.040Z,2.27
2023-03-17T01:46:14.098Z,1.95
2023-03-17T01:48:47.392Z,1.98
2023-03-17T01:51:22.016Z,1.85
2023-03-17T01:53:52.768Z,2.50
2023-03-17T01:56:20.313Z,2.40
2023-03-17T01:58:52.015Z,2.60
2023-03-17T02:01:24.020Z,2.58
2023-03-17T02:03:53.475Z,2.08
2023-03-17T02:06:20.675Z,2.10
2023-03-17T02:08:47.879Z,2.33
2023-03-17T02:11:15.327Z,2.25
2023-03-17T02:13:44.591Z,2.50
2023-03-17T02:16:16.491Z,1.90
2023-03-17T02:18:44.896Z,2.10
2023-03-17T02:21:28.279Z,2.70
2023-03-17T02:23:56.664Z,2.38
2023-03-17T02:26:25.995Z,1.83
2023-03-17T02:28:53.712Z,2.33
2023-03-17T02:31:21.298Z,2.08
2023-03-17T02:33:48.565Z,1.93
2023-03-17T02:36:16.325Z,1.70
2023-03-17T02:38:45.634Z,2.10
2023-03-17T02:41:12.800Z,1.90
2023-03-17T02:43:41.319Z,2.17
2023-03-17T02:46:08.672Z,2.70
2023-03-17T02:48:36.657Z,2.25
2023-03-17T02:51:04.349Z,2.00
2023-03-17T02:53:32.147Z,2.53
2023-03-17T02:55:59.445Z,1.98
2023-03-17T02:58:27.020Z,1.63
2023-03-17T03:00:54.460Z,1.85
2023-03-17T03:03:21.686Z,2.30
2023-03-17T03:05:48.933Z,1.98
2023-03-17T03:08:16.882Z,2.38
2023-03-17T03:10:44.234Z,2.50
2023-03-17T03:13:12.183Z,2.40
2023-03-17T03:15:42.056Z,1.88
2023-03-17T03:18:09.720Z,2.38
2023-03-17T03:20:37.053Z,1.67
2023-03-17T03:23:04.661Z,2.37
2023-03-17T03:25:32.132Z,2.65
2023-03-17T03:27:59.302Z,2.40
2023-03-17T03:30:27.045Z,2.28
2023-03-17T03:32:54.214Z,2.45
2023-03-17T03:35:21.523Z,1.77
2023-03-17T03:37:48.771Z,2.42
2023-03-17T03:40:16.120Z,2.10
2023-03-17T03:42:43.364Z,1.85
2023-03-17T03:45:10.901Z,2.20
2023-03-17T03:47:38.075Z,1.90
2023-03-17T03:50:06.719Z,1.50
2023-03-17T03:52:34.119Z,2.60
2023-03-17T03:55:01.329Z,2.20
2023-03-17T03:57:28.547Z,2.35
2023-03-17T03:59:56.058Z,1.70
2023-03-17T04:02:23.533Z,2.40
2023-03-17T04:04:50.803Z,2.58
2023-03-17T04:07:18.614Z,2.05
2023-03-17T04:09:45.881Z,2.35
2023-03-17T04:12:13.060Z,2.13
2023-03-17T04:14:40.359Z,2.67
2023-03-17T04:17:07.765Z,1.83
2023-03-17T04:19:35.077Z,1.83
2023-03-17T04:22:02.309Z,2.35
2023-03-17T04:24:29.510Z,2.63
2023-03-17T04:26:56.896Z,2.30
2023-03-17T04:29:25.274Z,2.40
2023-03-17T04:31:52.746Z,1.98
2023-03-17T04:34:20.302Z,2.65
2023-03-17T04:36:48.129Z,1.97
2023-03-17T04:39:15.822Z,2.10
2023-03-17T04:41:43.005Z,1.73
2023-03-17T04:44:10.358Z,2.33
2023-03-17T04:46:38.260Z,2.22
2023-03-17T04:49:05.541Z,1.63
2023-03-17T04:51:32.846Z,1.90
2023-03-17T04:54:00.566Z,2.28
2023-03-17T04:56:28.113Z,2.35
2023-03-17T04:58:55.850Z,2.30
2023-03-17T05:01:23.114Z,2.40
2023-03-17T05:03:50.381Z,1.77
2023-03-17T05:06:17.589Z,1.90
2023-03-17T05:08:45.383Z,2.20
2023-03-17T05:11:13.446Z,2.50
2023-03-17T05:13:41.128Z,1.83
2023-03-17T05:16:09.441Z,2.22
2023-03-17T05:18:37.452Z,2.08
2023-03-17T05:21:07.609Z,2.05
2023-03-17T05:23:35.183Z,1.92
2023-03-17T05:26:02.649Z,1.87
2023-03-17T05:28:29.917Z,2.28
2023-03-17T05:30:57.730Z,2.38
2023-03-17T05:33:25.192Z,2.03
2023-03-17T05:35:52.490Z,2.42
2023-03-17T05:38:19.667Z,2.10
2023-03-17T05:40:50.044Z,1.90
2023-03-17T05:43:17.507Z,2.10
2023-03-17T05:45:45.497Z,1.98
2023-03-17T05:48:13.117Z,2.45
2023-03-17T05:50:41.560Z,1.97
2023-03-17T05:53:09.499Z,1.77
2023-03-17T05:55:36.899Z,1.90
2023-03-17T05:58:05.894Z,2.00
2023-03-17T06:00:33.423Z,2.03
2023-03-17T06:03:01.837Z,1.77
2023-03-17T06:05:29.182Z,1.75
2023-03-17T06:07:56.741Z,2.10
2023-03-17T06:10:24.552Z,1.80
2023-03-17T06:12:51.918Z,2.65
2023-03-17T06:15:20.034Z,2.27
2023-03-17T06:17:47.211Z,2.20
2023-03-17T06:20:14.972Z,2.00
2023-03-17T06:23:00.440Z,2.08
2023-03-17T06:25:30.840Z,2.05
2023-03-17T06:27:58.281Z,1.83
2023-03-17T06:30:25.523Z,2.72
2023-03-17T06:32:52.775Z,2.05
2023-03-17T06:35:20.042Z,1.80
2023-03-17T06:37:47.803Z,1.60
2023-03-17T06:40:16.243Z,1.90
2023-03-17T06:42:43.604Z,1.85
2023-03-17T06:45:12.020Z,2.17
2023-03-17T06:47:39.663Z,2.03
2023-03-17T06:50:12.636Z,1.70
2023-03-17T06:52:40.763Z,1.97
2023-03-17T06:55:08.816Z,2.38
2023-03-17T06:57:36.340Z,2.63
2023-03-17T07:00:06.555Z,2.00
2023-03-17T07:02:34.165Z,2.40
2023-03-17T07:05:01.503Z,2.13
2023-03-17T07:07:28.894Z,2.15
2023-03-17T07:09:56.040Z,2.10
2023-03-17T07:12:23.270Z,2.47
2023-03-17T07:14:50.873Z,2.22
2023-03-17T07:17:19.521Z,2.10
2023-03-17T07:19:46.837Z,2.20
2023-03-17T07:22:14.128Z,2.65
2023-03-17T07:24:43.020Z,2.30
2023-03-17T07:27:11.016Z,2.10
2023-03-17T07:29:38.983Z,2.80
2023-03-17T07:32:08.111Z,2.50
2023-03-17T07:34:36.501Z,2.85
2023-03-17T07:37:04.418Z,2.03
2023-03-17T07:39:31.848Z,2.47
2023-03-17T07:41:59.089Z,2.50
2023-03-17T07:44:27.376Z,2.70
2023-03-17T07:46:55.145Z,2.05
2023-03-17T07:49:38.084Z,2.67
2023-03-17T07:52:09.373Z,2.70
2023-03-17T07:54:37.542Z,2.07
2023-03-17T07:57:05.627Z,2.67
2023-03-17T07:59:33.014Z,2.65
2023-03-17T08:02:01.480Z,2.35
2023-03-17T08:04:29.320Z,2.75
2023-03-17T08:06:57.382Z,2.67
2023-03-17T08:09:24.958Z,2.70
2023-03-17T08:11:52.212Z,2.70
2023-03-17T08:14:19.648Z,2.58
2023-03-17T08:16:47.245Z,2.85
2023-03-17T08:19:14.604Z,2.73
2023-03-17T08:21:42.597Z,2.67
2023-03-17T08:24:09.769Z,2.90
2023-03-17T08:26:37.584Z,2.70
2023-03-17T08:29:05.058Z,2.50
2023-03-17T08:31:33.842Z,2.50
2023-03-17T08:34:03.455Z,2.80
2023-03-17T08:36:30.711Z,2.85
2023-03-17T08:38:57.968Z,2.70
2023-03-17T08:41:27.413Z,2.35
2023-03-17T08:43:55.388Z,2.50
2023-03-17T08:46:29.188Z,3.25
2023-03-17T08:48:58.821Z,3.17
2023-03-17T08:51:29.096Z,3.30
2023-03-17T08:53:56.752Z,2.70
2023-03-17T08:56:24.257Z,2.90
2023-03-17T08:58:51.831Z,2.40
2023-03-17T09:01:21.199Z,2.78
2023-03-17T09:03:49.649Z,2.70
2023-03-17T09:06:16.903Z,3.55
2023-03-17T09:08:44.966Z,3.40
2023-03-17T09:11:16.402Z,2.97
2023-03-17T09:13:44.797Z,3.50
2023-03-17T09:16:13.243Z,3.38
2023-03-17T09:18:41.027Z,3.65
2023-03-17T09:21:09.746Z,3.07
2023-03-17T09:23:37.098Z,3.00
2023-03-17T09:26:04.447Z,3.85
2023-03-17T09:28:31.862Z,3.35
2023-03-17T09:31:01.187Z,3.72
2023-03-17T09:33:28.943Z,3.23
2023-03-17T09:35:59.479Z,3.10
2023-03-17T09:38:27.477Z,3.10
2023-03-17T09:40:58.867Z,39.90
2023-03-17T09:43:47.596Z,3.72
2023-03-17T09:46:46.702Z,2.97
2023-03-17T09:49:20.600Z,3.30
2023-03-17T09:51:49.396Z,3.95
2023-03-17T09:54:20.205Z,3.33
2023-03-17T09:56:54.628Z,4.20
2023-03-17T09:59:35.348Z,3.77
2023-03-17T10:02:02.974Z,4.10
2023-03-17T10:04:30.144Z,3.65
2023-03-17T10:07:03.774Z,3.97
2023-03-17T10:09:46.811Z,3.85
2023-03-17T10:12:33.139Z,3.37
2023-03-17T10:15:12.373Z,3.53
2023-03-17T10:17:42.846Z,4.20
2023-03-17T10:20:17.310Z,4.05
2023-03-17T10:22:52.848Z,3.00
2023-03-17T10:25:23.347Z,3.73
2023-03-17T10:28:09.162Z,4.25
2023-03-17T10:30:36.754Z,4.25
2023-03-17T10:33:08.693Z,4.60
2023-03-17T10:35:39.331Z,3.90
2023-03-17T10:38:21.443Z,4.20
2023-03-17T10:41:02.337Z,4.57
2023-03-17T10:43:35.519Z,3.90
2023-03-17T10:46:05.674Z,3.78
2023-03-17T10:48:37.606Z,4.20
2023-03-17T10:51:09.611Z,3.83
2023-03-17T10:53:42.860Z,4.18
2023-03-17T10:56:20.358Z,3.70
2023-03-17T10:58:50.167Z,3.47
2023-03-17T11:01:29.130Z,4.50
2023-03-17T11:03:57.462Z,3.70
2023-03-17T11:06:42.075Z,3.72
2023-03-17T11:09:16.782Z,4.20
2023-03-17T11:11:49.123Z,4.43
2023-03-17T11:14:18.949Z,4.45
2023-03-17T11:16:53.781Z,4.30
2023-03-17T11:19:29.719Z,4.85
2023-03-17T11:22:17.537Z,5.10
2023-03-17T11:25:11.333Z,4.47
2023-03-17T11:27:59.955Z,4.18
2023-03-17T11:30:38.103Z,4.97
2023-03-17T11:33:29.856Z,4.20
2023-03-17T11:36:24.837Z,4.68
2023-03-17T11:39:11.651Z,4.43
2023-03-17T11:42:13.227Z,4.55
2023-03-17T11:45:12.430Z,4.60
2023-03-17T11:48:04.056Z,4.82
2023-03-17T11:50:46.794Z,4.38
2023-03-17T11:53:38.173Z,4.80
2023-03-17T11:56:21.620Z,5.07
2023-03-17T11:58:56.208Z,4.50
2023-03-17T12:01:28.204Z,4.38
2023-03-17T12:04:13.954Z,4.80
2023-03-17T12:06:50.642Z,4.82
2023-03-17T12:09:21.177Z,4.50
2023-03-17T12:11:50.754Z,4.50
2023-03-17T12:14:35.650Z,5.38
2023-03-17T12:17:19.828Z,5.38
2023-03-17T12:20:09.447Z,4.95
2023-03-17T12:22:46.980Z,5.50
2023-03-17T12:25:27.054Z,4.57
2023-03-17T12:28:08.901Z,4.90
2023-03-17T12:31:02.021Z,4.57
2023-03-17T12:33:36.042Z,4.47
2023-03-17T12:36:05.276Z,4.35
2023-03-17T12:38:43.300Z,4.00
2023-03-17T12:41:22.457Z,3.90
2023-03-17T12:44:06.773Z,5.32
2023-03-17T12:46:48.909Z,4.78
2023-03-17T12:49:55.851Z,4.38
2023-03-17T12:52:49.504Z,5.93
2023-03-17T12:55:18.311Z,5.20
2023-03-17T12:57:47.974Z,4.60
2023-03-17T13:00:30.064Z,5.15
2023-03-17T13:03:26.241Z,4.45
2023-03-17T13:06:00.525Z,4.40
2023-03-17T13:08:34.074Z,4.82
2023-03-17T13:11:27.162Z,5.63
2023-03-17T13:13:54.489Z,4.93
2023-03-17T13:16:41.212Z,5.05
2023-03-17T13:19:15.756Z,5.10
2023-03-17T13:22:06.271Z,4.90
2023-03-17T13:24:47.328Z,5.35
2023-03-17T13:27:32.925Z,5.43
2023-03-17T13:30:25.726Z,5.30
2023-03-17T13:33:12.227Z,5.20
2023-03-17T13:35:48.032Z,4.90
2023-03-17T13:38:39.793Z,5.72
2023-03-17T13:41:26.135Z,4.97
2023-03-17T13:44:12.853Z,5.07
2023-03-17T13:46:46.549Z,5.13
2023-03-17T13:49:19.389Z,5.35
2023-03-17T13:52:11.549Z,5.50
2023-03-17T13:55:05.909Z,4.88
2023-03-17T13:57:38.931Z,5.15
2023-03-17T14:00:21.648Z,4.97
2023-03-17T14:02:51.219Z,4.88
2023-03-17T14:05:24.422Z,5.28
2023-03-17T14:07:58.177Z,5.03
2023-03-17T14:10:27.996Z,5.88
2023-03-17T14:13:07.829Z,5.07
2023-03-17T14:15:48.112Z,5.47
2023-03-17T14:18:21.260Z,6.00
2023-03-17T14:20:57.468Z,5.90
2023-03-17T14:23:25.722Z,6.00
2023-03-17T14:25:56.941Z,5.50
2023-03-17T14:28:30.823Z,5.05
2023-03-17T14:31:03.742Z,5.70
2023-03-17T14:33:34.540Z,4.90
2023-03-17T14:36:04.150Z,5.20
2023-03-17T14:38:37.530Z,4.80
2023-03-17T14:41:13.894Z,5.40
2023-03-17T14:43:42.663Z,5.60
2023-03-17T14:46:22.315Z,4.85
2023-03-17T14:48:56.581Z,5.28
2023-03-17T14:51:30.444Z,4.77
2023-03-17T14:54:00.915Z,5.07
2023-03-17T14:56:41.020Z,4.70
2023-03-17T14:59:39.790Z,4.90
2023-03-17T15:02:23.171Z,5.07
2023-03-17T15:04:58.084Z,4.77
2023-03-17T15:07:42.541Z,5.30
2023-03-17T15:10:22.342Z,5.28
2023-03-17T15:12:49.712Z,5.18
2023-03-17T15:15:22.478Z,4.80
2023-03-17T15:17:54.206Z,5.13
2023-03-17T15:20:21.788Z,5.70
2023-03-17T15:23:06.063Z,5.50
2023-03-17T15:25:56.468Z,5.53
2023-03-17T15:28:28.175Z,5.00
2023-03-17T15:31:05.177Z,6.20
2023-03-17T15:33:36.286Z,5.78
2023-03-17T15:36:04.461Z,5.50
2023-03-17T15:38:32.190Z,6.07
2023-03-17T15:40:59.406Z,5.57
2023-03-17T15:43:26.633Z,5.60
2023-03-17T15:46:08.504Z,5.95
2023-03-17T15:48:36.597Z,5.82
2023-03-17T15:51:05.719Z,5.45
2023-03-17T15:53:33.050Z,5.95
2023-03-17T15:56:00.366Z,5.67
2023-03-17T15:58:27.633Z,6.13
2023-03-17T16:00:57.497Z,6.25
2023-03-17T16:03:28.761Z,5.47
2023-03-17T16:05:56.427Z,5.47
2023-03-17T16:08:24.772Z,5.60
2023-03-17T16:10:52.173Z,5.40
2023-03-17T16:13:19.592Z,5.70
2023-03-17T16:15:53.649Z,5.57
2023-03-17T16:18:34.044Z,5.85
2023-03-17T16:21:02.794Z,5.93
2023-03-17T16:23:36.989Z,5.47
2023-03-17T16:26:14.776Z,5.90
2023-03-17T16:28:45.288Z,6.00
2023-03-17T16:31:21.606Z,5.22
2023-03-17T16:33:50.261Z,5.33
2023-03-17T16:36:20.231Z,5.40
2023-03-17T16:38:47.851Z,5.72
2023-03-17T16:41:21.074Z,5.40
2023-03-17T16:43:51.340Z,5.50
2023-03-17T16:46:21.044Z,5.43
2023-03-17T16:48:49.791Z,5.55
2023-03-17T16:51:17.450Z,5.63
2023-03-17T16:53:45.697Z,5.60
2023-03-17T16:56:24.608Z,5.47
2023-03-17T16:58:51.941Z,5.70
2023-03-17T17:01:25.380Z,5.72
2023-03-17T17:03:53.277Z,5.20
2023-03-17T17:06:22.302Z,5.70
2023-03-17T17:08:50.709Z,6.35
2023-03-17T17:11:19.579Z,5.40
2023-03-17T17:13:48.683Z,5.57
2023-03-17T17:16:27.791Z,5.20
2023-03-17T17:18:55.593Z,6.15
2023-03-17T17:21:23.136Z,5.90
2023-03-17T17:23:52.799Z,5.97
2023-03-17T17:26:21.092Z,6.00
2023-03-17T17:28:48.524Z,5.90
2023-03-17T17:31:16.023Z,5.75
2023-03-17T17:33:43.233Z,5.78
2023-03-17T17:36:15.725Z,6.07
2023-03-17T17:38:43.223Z,6.10
2023-03-17T17:41:11.669Z,5.82
2023-03-17T17:43:39.401Z,5.82
2023-03-17T17:46:20.585Z,6.35
2023-03-17T17:48:48.461Z,5.90
2023-03-17T17:51:16.139Z,6.20
2023-03-17T17:53:43.659Z,7.07
2023-03-17T17:56:18.022Z,6.50
2023-03-17T17:58:45.741Z,6.63
2023-03-17T18:01:16.733Z,7.07
2023-03-17T18:03:44.118Z,7.18
2023-03-17T18:06:13.128Z,6.95
2023-03-17T18:08:41.054Z,7.53
2023-03-17T18:11:08.711Z,7.72
2023-03-17T18:13:38.789Z,8.80
2023-03-17T18:16:09.822Z,8.48
2023-03-17T18:18:40.520Z,8.32
2023-03-17T18:21:08.080Z,8.45
2023-03-17T18:23:36.470Z,8.70
2023-03-17T18:26:05.971Z,9.23
2023-03-17T18:28:34.010Z,9.77
2023-03-17T18:31:07.665Z,10.00
2023-03-17T18:33:34.918Z,8.65
2023-03-17T18:36:06.034Z,9.07
2023-03-17T18:38:33.884Z,9.07
2023-03-17T18:41:01.648Z,9.90
2023-03-17T18:43:28.858Z,8.68
2023-03-17T18:45:56.262Z,8.32
2023-03-17T18:48:23.491Z,7.32
2023-03-17T18:50:50.827Z,7.90
2023-03-17T18:53:18.028Z,7.00
2023-03-17T18:55:45.500Z,8.05
2023-03-17T18:58:12.784Z,7.70
2023-03-17T19:00:40.567Z,8.68
2023-03-17T19:03:08.066Z,8.20
2023-03-17T19:05:38.033Z,7.60
2023-03-17T19:08:05.468Z,7.82
2023-03-17T19:10:32.971Z,6.57
2023-03-17T19:13:00.468Z,6.90
2023-03-17T19:15:27.806Z,9.87
2023-03-17T19:17:55.014Z,9.07
2023-03-17T19:20:22.291Z,8.93
2023-03-17T19:22:53.069Z,9.02
2023-03-17T19:25:21.108Z,13.45
2023-03-17T19:27:48.902Z,9.60
2023-03-17T19:30:16.360Z,8.00
2023-03-17T19:32:43.680Z,9.15
2023-03-17T19:35:11.656Z,7.95
2023-03-17T19:37:38.972Z,7.63
2023-03-17T19:40:09.665Z,7.17
2023-03-17T19:42:36.973Z,7.45
2023-03-17T19:45:04.738Z,7.38
2023-03-17T19:47:31.944Z,8.13
2023-03-17T19:49:59.151Z,7.20
2023-03-17T19:52:26.546Z,6.97
2023-03-17T19:54:53.827Z,7.15
2023-03-17T19:57:21.226Z,7.32
2023-03-17T19:59:48.388Z,7.40
2023-03-17T20:02:16.779Z,7.22
2023-03-17T20:04:44.291Z,8.23
2023-03-17T20:07:11.755Z,10.10
2023-03-17T20:09:39.370Z,8.38
2023-03-17T20:12:07.060Z,8.20
2023-03-17T20:14:34.379Z,8.93
2023-03-17T20:17:01.725Z,8.63
2023-03-17T20:19:29.208Z,8.95
2023-03-17T20:21:58.441Z,8.27
2023-03-17T20:24:27.017Z,8.57
2023-03-17T20:26:57.249Z,8.88
2023-03-17T20:29:24.479Z,8.07
2023-03-17T20:31:51.855Z,7.97
2023-03-17T20:34:19.102Z,8.25
2023-03-17T20:36:46.753Z,8.43
2023-03-17T20:39:19.632Z,8.48
2023-03-17T20:41:48.218Z,8.07
2023-03-17T20:44:15.885Z,7.95
2023-03-17T20:46:45.008Z,7.50
2023-03-17T20:49:12.697Z,7.60
2023-03-17T20:51:40.997Z,7.55
2023-03-17T20:54:08.792Z,7.50
2023-03-17T20:56:37.360Z,8.18
2023-03-17T20:59:05.995Z,7.90
2023-03-17T21:01:36.173Z,7.95
2023-03-17T21:04:08.896Z,7.70
2023-03-17T21:06:37.401Z,8.27
2023-03-17T21:09:05.316Z,8.10
2023-03-17T21:11:32.495Z,8.48
2023-03-17T21:13:59.713Z,7.78
2023-03-17T21:16:28.397Z,8.10
2023-03-17T21:18:56.010Z,8.17
2023-03-17T21:21:24.708Z,7.97
2023-03-17T21:23:51.925Z,7.78
2023-03-17T21:26:19.472Z,8.50
2023-03-17T21:28:47.552Z,8.13
2023-03-17T21:31:15.933Z,8.27
2023-03-17T21:33:44.101Z,8.52
2023-03-17T21:36:11.533Z,7.88
2023-03-17T21:38:38.844Z,9.45
2023-03-17T21:41:33.262Z,8.75
2023-03-17T21:44:02.138Z,8.27
2023-03-17T21:46:29.663Z,8.07
2023-03-17T21:48:57.148Z,8.70
2023-03-17T21:51:25.698Z,9.10
2023-03-17T21:53:53.801Z,9.32
2023-03-17T21:56:21.485Z,8.83
2023-03-17T21:58:48.942Z,8.77
2023-03-17T22:01:17.669Z,8.77
2023-03-17T22:03:44.986Z,8.15
2023-03-17T22:06:13.990Z,8.00
2023-03-17T22:08:41.368Z,7.90
2023-03-17T22:11:10.988Z,8.23
2023-03-17T22:13:38.278Z,8.07
2023-03-17T22:16:06.081Z,7.50
2023-03-17T22:18:33.554Z,8.55
2023-03-17T22:21:00.936Z,8.40
2023-03-17T22:23:29.073Z,8.20
2023-03-17T22:25:57.257Z,8.60
2023-03-17T22:28:24.980Z,8.38
2023-03-17T22:30:52.152Z,8.05
2023-03-17T22:33:19.352Z,7.73
2023-03-17T22:35:47.081Z,8.02
2023-03-17T22:38:14.323Z,8.40
2023-03-17T22:40:41.790Z,8.63
2023-03-17T22:43:08.985Z,7.72
2023-03-17T22:45:36.235Z,7.60
2023-03-17T22:48:03.530Z,7.53
2023-03-17T22:50:31.105Z,6.97
2023-03-17T22:52:58.488Z,7.72
2023-03-17T22:55:25.674Z,7.53
2023-03-17T22:57:52.907Z,7.10
2023-03-17T23:00:20.334Z,7.82
2023-03-17T23:02:47.643Z,8.68
2023-03-17T23:05:15.897Z,7.93
2023-03-17T23:07:51.577Z,7.68
2023-03-17T23:10:24.602Z,8.13
2023-03-17T23:12:52.677Z,7.82
2023-03-17T23:15:20.954Z,7.85
2023-03-17T23:17:48.719Z,7.88
2023-03-17T23:20:16.880Z,8.00
2023-03-17T23:22:44.112Z,8.47
2023-03-17T23:25:13.447Z,7.93
2023-03-17T23:27:41.335Z,8.10
2023-03-17T23:30:11.714Z,8.38
2023-03-17T23:32:40.638Z,8.50
2023-03-17T23:35:09.337Z,8.20
2023-03-17T23:37:37.262Z,8.35
2023-03-17T23:40:06.313Z,8.60
2023-03-17T23:42:33.824Z,8.52
2023-03-17T23:45:02.119Z,8.00
2023-03-17T23:47:29.521Z,8.73
2023-03-17T23:49:57.096Z,8.32
2023-03-17T23:52:24.297Z,9.27
2023-03-17T23:54:52.176Z,9.05
2023-03-17T23:57:19.349Z,9.00
2023-03-17T23:59:46.788Z,9.60
